Flight Briefing for CPX254

Departure Arrival
Princess Juliana International Airport (TNCM)
Click to view FAA NOTAMS
Miami International Airport (KMIA)
Click to view FAA NOTAMS
Departure Time Arrival Time
N/A N/A
Aircraft Distance
B767-300BDSF 1064nm
Departure METAR Arrival METAR
TNCM 271000Z 07005KT 9999 FEW015TCU BKN040 26/23 Q1015 A2997 TEMPO SHRA RMK RW E SE NE KMIA 271053Z 07007KT 10SM FEW024 26/20 A3005 RMK AO2 SLP175 T02610200
Suggested Route
PJM B520 STT RTE6 SJU ACONY Y308 FOWEE FLIPR6


View recent IFR Routes data
Notes



Charts and Procedures

Charts for TNCM
No chart available
Charts for KMIA
No chart available

Windy.com Weather Map